createdAt,value
2019-04-25T00:00:05.809Z,10.45
2019-04-25T00:02:34.085Z,12.23
2019-04-25T00:05:01.358Z,10.58
2019-04-25T00:07:27.950Z,10.20
2019-04-25T00:09:55.229Z,13.80
2019-04-25T00:12:22.278Z,9.48
2019-04-25T00:14:48.508Z,10.10
2019-04-25T00:17:14.370Z,8.93
2019-04-25T00:19:42.194Z,13.58
2019-04-25T00:22:13.783Z,10.08
2019-04-25T00:24:58.179Z,9.33
2019-04-25T00:27:25.246Z,16.65
2019-04-25T00:29:51.721Z,11.73
2019-04-25T00:32:18.350Z,8.75
2019-04-25T00:34:45.664Z,13.08
2019-04-25T00:37:13.926Z,8.70
2019-04-25T00:39:41.308Z,7.80
2019-04-25T00:42:08.313Z,9.53
2019-04-25T00:44:34.161Z,9.05
2019-04-25T00:46:59.922Z,10.00
2019-04-25T00:49:26.247Z,17.02
2019-04-25T00:51:53.196Z,12.03
2019-04-25T00:54:19.816Z,11.60
2019-04-25T00:56:47.770Z,15.60
2019-04-25T00:59:18.422Z,11.57
2019-04-25T01:01:49.287Z,14.50
2019-04-25T01:04:16.704Z,15.28
2019-04-25T01:06:43.978Z,16.35
2019-04-25T01:09:14.813Z,11.83
2019-04-25T01:11:42.312Z,17.05
2019-04-25T01:14:08.314Z,12.47
2019-04-25T01:16:34.181Z,14.70
2019-04-25T01:19:00.079Z,13.08
2019-04-25T01:21:25.956Z,13.10
2019-04-25T01:23:53.277Z,10.88
2019-04-25T01:26:20.057Z,13.58
2019-04-25T01:28:46.195Z,13.55
2019-04-25T01:31:14.575Z,15.48
2019-04-25T01:33:40.789Z,15.93
2019-04-25T01:36:09.067Z,15.13
2019-04-25T01:38:43.292Z,12.07
2019-04-25T01:41:14.657Z,12.07
2019-04-25T01:43:43.664Z,14.23
2019-04-25T01:46:10.373Z,11.68
2019-04-25T01:48:36.605Z,10.80
2019-04-25T01:51:04.106Z,12.28
2019-04-25T01:53:30.285Z,9.53
2019-04-25T01:56:02.724Z,9.85
2019-04-25T01:58:23.804Z,9.20
2019-04-25T02:00:52.096Z,9.75
2019-04-25T02:03:18.420Z,9.58
2019-04-25T02:05:44.276Z,10.25
2019-04-25T02:08:10.606Z,12.25
2019-04-25T02:10:37.254Z,8.20
2019-04-25T02:13:08.398Z,7.17
2019-04-25T02:15:35.033Z,11.55
2019-04-25T02:18:01.842Z,7.83
2019-04-25T02:20:29.117Z,8.00
2019-04-25T02:22:56.462Z,7.70
2019-04-25T02:25:22.969Z,7.40
2019-04-25T02:27:50.688Z,9.15
2019-04-25T02:30:17.822Z,8.23
2019-04-25T02:32:44.253Z,11.12
2019-04-25T02:35:11.020Z,6.67
2019-04-25T02:37:37.243Z,8.85
2019-04-25T02:40:07.879Z,6.60
2019-04-25T02:42:34.332Z,8.20
2019-04-25T02:45:06.531Z,10.45
2019-04-25T02:47:34.443Z,6.47
2019-04-25T02:50:11.319Z,9.73
2019-04-25T02:52:39.050Z,7.47
2019-04-25T02:55:10.557Z,5.80
2019-04-25T02:57:34.587Z,6.80
2019-04-25T03:00:02.682Z,8.88
2019-04-25T03:02:29.440Z,8.18
2019-04-25T03:04:57.508Z,6.62
2019-04-25T03:07:24.570Z,15.32
2019-04-25T03:09:50.657Z,9.45
2019-04-25T03:12:29.157Z,8.30
2019-04-25T03:14:44.733Z,5.72
2019-04-25T03:17:11.323Z,10.30
2019-04-25T03:19:43.923Z,7.12
2019-04-25T03:22:12.042Z,7.20
2019-04-25T03:24:39.831Z,6.90
2019-04-25T03:27:06.488Z,10.88
2019-04-25T03:29:34.193Z,12.75
2019-04-25T03:32:02.021Z,8.38
2019-04-25T03:34:28.565Z,9.10
2019-04-25T03:36:54.436Z,9.65
2019-04-25T03:39:20.573Z,10.00
2019-04-25T03:41:46.800Z,8.58
2019-04-25T03:44:13.882Z,14.38
2019-04-25T03:46:40.489Z,6.45
2019-04-25T03:49:06.329Z,9.48
2019-04-25T03:51:33.815Z,10.25
2019-04-25T03:54:00.096Z,8.93
2019-04-25T03:56:27.046Z,5.83
2019-04-25T03:58:54.031Z,9.30
2019-04-25T04:01:19.922Z,10.13
2019-04-25T04:03:45.751Z,12.68
2019-04-25T04:06:11.893Z,7.80
2019-04-25T04:08:38.144Z,10.50
2019-04-25T04:11:05.335Z,7.78
2019-04-25T04:13:31.718Z,11.28
2019-04-25T04:15:58.042Z,5.95
2019-04-25T04:18:37.822Z,8.80
2019-04-25T04:21:09.009Z,9.28
2019-04-25T04:23:57.208Z,9.23
2019-04-25T04:26:23.506Z,7.90
2019-04-25T04:28:49.733Z,7.58
2019-04-25T04:31:16.478Z,8.83
2019-04-25T04:33:43.178Z,10.90
2019-04-25T04:36:09.290Z,10.53
2019-04-25T04:38:35.134Z,6.85
2019-04-25T04:41:00.973Z,7.28
2019-04-25T04:43:27.530Z,6.45
2019-04-25T04:45:54.111Z,6.40
2019-04-25T04:48:20.395Z,6.50
2019-04-25T04:50:46.281Z,5.20
2019-04-25T04:53:13.194Z,7.17
2019-04-25T04:55:40.727Z,14.83
2019-04-25T04:58:06.609Z,4.05
2019-04-25T05:00:33.871Z,4.67
2019-04-25T05:03:01.821Z,6.95
2019-04-25T05:05:39.162Z,8.93
2019-04-25T05:08:07.425Z,6.28
2019-04-25T05:10:33.653Z,4.83
2019-04-25T05:12:59.574Z,11.33
2019-04-25T05:15:25.781Z,5.65
2019-04-25T05:17:54.171Z,6.22
2019-04-25T05:20:21.096Z,4.65
2019-04-25T05:22:46.847Z,8.80
2019-04-25T05:25:16.201Z,4.58
2019-04-25T05:27:57.643Z,4.37
2019-04-25T05:30:11.350Z,5.83
2019-04-25T05:32:37.629Z,7.85
2019-04-25T05:35:05.039Z,5.53
2019-04-25T05:37:30.870Z,6.55
2019-04-25T05:39:57.098Z,9.30
2019-04-25T05:42:27.808Z,4.87
2019-04-25T05:44:56.094Z,4.92
2019-04-25T05:47:24.406Z,4.35
2019-04-25T05:49:50.287Z,6.62
2019-04-25T05:52:16.149Z,6.10
2019-04-25T05:54:42.129Z,7.55
2019-04-25T05:57:08.495Z,4.75
2019-04-25T05:59:34.803Z,4.25
2019-04-25T06:02:00.923Z,2.85
2019-04-25T06:04:27.347Z,9.85
2019-04-25T06:06:55.211Z,5.10
2019-04-25T06:09:24.095Z,8.65
2019-04-25T06:11:56.860Z,7.83
2019-04-25T06:14:24.068Z,6.50
2019-04-25T06:16:53.637Z,5.85
2019-04-25T06:19:39.717Z,6.95
2019-04-25T06:22:07.526Z,5.10
2019-04-25T06:24:35.838Z,6.47
2019-04-25T06:27:16.002Z,4.37
2019-04-25T06:29:43.449Z,4.58
2019-04-25T06:32:09.313Z,7.30
2019-04-25T06:34:36.483Z,5.50
2019-04-25T06:37:04.744Z,3.77
2019-04-25T06:39:30.841Z,6.37
2019-04-25T06:41:56.615Z,5.25
2019-04-25T06:44:31.074Z,6.22
2019-04-25T06:47:04.598Z,6.83
2019-04-25T06:49:43.120Z,5.97
2019-04-25T06:52:09.190Z,7.22
2019-04-25T06:54:35.644Z,5.70
2019-04-25T06:57:01.540Z,3.65
2019-04-25T06:59:28.745Z,7.03
2019-04-25T07:01:56.235Z,8.03
2019-04-25T07:04:25.112Z,3.45
2019-04-25T07:06:50.887Z,4.20
2019-04-25T07:09:17.130Z,4.33
2019-04-25T07:11:43.996Z,6.78
2019-04-25T07:14:10.492Z,6.08
2019-04-25T07:16:37.041Z,6.62
2019-04-25T07:19:04.524Z,5.78
2019-04-25T07:21:31.152Z,5.58
2019-04-25T07:23:57.357Z,11.15
2019-04-25T07:26:28.924Z,7.60
2019-04-25T07:28:56.657Z,7.87
2019-04-25T07:31:40.840Z,8.10
2019-04-25T07:34:14.606Z,4.42
2019-04-25T07:36:40.860Z,13.18
2019-04-25T07:39:10.680Z,4.28
2019-04-25T07:41:38.085Z,4.50
2019-04-25T07:44:04.288Z,4.90
2019-04-25T07:46:32.806Z,5.70
2019-04-25T07:48:59.794Z,4.85
2019-04-25T07:51:26.782Z,2.85
2019-04-25T07:53:53.463Z,4.80
2019-04-25T07:56:20.117Z,5.85
2019-04-25T07:58:52.259Z,5.30
2019-04-25T08:01:14.726Z,4.05
2019-04-25T08:03:41.262Z,3.22
2019-04-25T08:06:07.995Z,8.95
2019-04-25T08:08:34.905Z,3.67
2019-04-25T08:11:04.218Z,5.03
2019-04-25T08:13:32.546Z,2.67
2019-04-25T08:16:03.300Z,5.35
2019-04-25T08:18:30.190Z,5.42
2019-04-25T08:20:56.997Z,2.75
2019-04-25T08:23:23.830Z,2.70
2019-04-25T08:25:50.121Z,2.75
2019-04-25T08:28:15.873Z,5.00
2019-04-25T08:30:41.806Z,7.33
2019-04-25T08:33:09.207Z,11.33
2019-04-25T08:35:36.428Z,4.92
2019-04-25T08:38:03.709Z,5.30
2019-04-25T08:40:32.358Z,4.87
2019-04-25T08:42:58.250Z,4.75
2019-04-25T08:45:24.532Z,2.05
2019-04-25T08:47:50.990Z,6.92
2019-04-25T08:50:28.831Z,5.90
2019-04-25T08:52:54.350Z,3.60
2019-04-25T08:55:38.708Z,2.90
2019-04-25T08:58:07.059Z,6.53
2019-04-25T09:00:44.772Z,4.33
2019-04-25T09:03:18.706Z,2.47
2019-04-25T09:05:46.752Z,3.67
2019-04-25T09:08:14.198Z,3.47
2019-04-25T09:10:41.325Z,6.97
2019-04-25T09:13:07.773Z,3.15
2019-04-25T09:15:36.561Z,5.05
2019-04-25T09:18:03.971Z,4.03
2019-04-25T09:20:30.541Z,4.40
2019-04-25T09:22:56.410Z,5.15
2019-04-25T09:25:23.833Z,4.47
2019-04-25T09:27:50.465Z,4.53
2019-04-25T09:30:16.571Z,2.37
2019-04-25T09:32:42.952Z,3.12
2019-04-25T09:35:10.121Z,4.15
2019-04-25T09:37:36.733Z,2.60
2019-04-25T09:40:06.937Z,3.00
2019-04-25T09:42:33.830Z,2.40
2019-04-25T09:45:17.621Z,1.85
2019-04-25T09:47:45.788Z,2.75
2019-04-25T09:50:13.976Z,2.90
2019-04-25T09:52:40.210Z,2.98
2019-04-25T09:55:24.633Z,2.83
2019-04-25T09:57:55.271Z,5.05
2019-04-25T10:00:41.201Z,8.53
2019-04-25T10:03:07.472Z,2.90
2019-04-25T10:05:33.966Z,2.67
2019-04-25T10:07:59.968Z,2.20
2019-04-25T10:10:25.828Z,5.20
2019-04-25T10:12:51.661Z,3.30
2019-04-25T10:15:24.029Z,2.92
2019-04-25T10:17:50.166Z,4.25
2019-04-25T10:20:16.058Z,4.92
2019-04-25T10:22:44.263Z,2.42
2019-04-25T10:25:10.395Z,5.67
2019-04-25T10:27:36.218Z,4.87
2019-04-25T10:30:16.380Z,3.77
2019-04-25T10:32:31.061Z,1.95
2019-04-25T10:34:57.300Z,5.15
2019-04-25T10:37:23.090Z,2.37
2019-04-25T10:39:49.324Z,2.77
2019-04-25T10:42:15.225Z,2.67
2019-04-25T10:44:41.783Z,2.33
2019-04-25T10:47:08.428Z,4.33
2019-04-25T10:49:34.705Z,2.45
2019-04-25T10:52:00.542Z,5.53
2019-04-25T10:54:26.763Z,5.72
2019-04-25T10:56:52.979Z,4.00
2019-04-25T10:59:18.855Z,7.45
2019-04-25T11:01:46.147Z,11.12
2019-04-25T11:04:14.558Z,7.87
2019-04-25T11:06:40.886Z,6.10
2019-04-25T11:09:08.629Z,8.30
2019-04-25T11:11:34.853Z,8.10
2019-04-25T11:14:01.069Z,4.75
2019-04-25T11:16:26.947Z,9.08
2019-04-25T11:18:54.705Z,10.18
2019-04-25T11:21:20.470Z,5.55
2019-04-25T11:23:47.626Z,5.87
2019-04-25T11:26:14.804Z,3.83
2019-04-25T11:28:41.041Z,2.70
2019-04-25T11:31:08.830Z,4.65
2019-04-25T11:33:34.664Z,4.50
2019-04-25T11:36:00.833Z,4.42
2019-04-25T11:38:30.811Z,4.05
2019-04-25T11:40:58.148Z,6.22
2019-04-25T11:43:24.458Z,5.05
2019-04-25T11:45:50.680Z,2.15
2019-04-25T11:48:16.547Z,2.85
2019-04-25T11:50:44.101Z,5.17
2019-04-25T11:53:10.031Z,3.80
2019-04-25T11:55:36.411Z,5.60
2019-04-25T11:58:03.685Z,3.42
2019-04-25T12:00:31.740Z,3.15
2019-04-25T12:02:57.967Z,1.92
2019-04-25T12:05:24.197Z,2.00
2019-04-25T12:07:50.434Z,5.72
2019-04-25T12:10:17.108Z,2.67
2019-04-25T12:12:46.234Z,2.98
2019-04-25T12:15:10.933Z,1.30
2019-04-25T12:17:37.403Z,2.10
2019-04-25T12:20:04.012Z,3.15
2019-04-25T12:22:30.254Z,1.70
2019-04-25T12:24:56.146Z,2.27
2019-04-25T12:27:22.103Z,4.65
2019-04-25T12:29:48.567Z,4.10
2019-04-25T12:32:14.404Z,3.47
2019-04-25T12:34:40.283Z,2.52
2019-04-25T12:37:06.840Z,2.72
2019-04-25T12:39:34.184Z,2.83
2019-04-25T12:42:00.497Z,2.80
2019-04-25T12:44:37.050Z,2.05
2019-04-25T12:47:04.800Z,3.25
2019-04-25T12:49:30.642Z,2.83
2019-04-25T12:51:56.728Z,2.27
2019-04-25T12:54:23.863Z,1.77
2019-04-25T12:56:50.170Z,4.05
2019-04-25T12:59:16.391Z,1.82
2019-04-25T13:01:43.444Z,1.10
2019-04-25T13:04:09.666Z,2.98
2019-04-25T13:06:35.901Z,2.27
2019-04-25T13:09:01.748Z,0.53
2019-04-25T13:11:28.362Z,1.17
2019-04-25T13:13:55.095Z,3.80
2019-04-25T13:16:21.644Z,2.08
2019-04-25T13:18:47.510Z,1.05
2019-04-25T13:21:14.321Z,2.90
2019-04-25T13:23:40.741Z,4.10
2019-04-25T13:26:07.198Z,1.77
2019-04-25T13:28:51.666Z,1.98
2019-04-25T13:31:19.464Z,2.42
2019-04-25T13:33:47.779Z,1.95
2019-04-25T13:36:15.569Z,1.95
2019-04-25T13:38:41.394Z,3.47
2019-04-25T13:41:07.685Z,1.98
2019-04-25T13:43:34.061Z,1.07
2019-04-25T13:46:00.288Z,1.77
2019-04-25T13:48:27.793Z,1.52
2019-04-25T13:50:54.652Z,1.25
2019-04-25T13:53:20.874Z,0.85
2019-04-25T13:55:47.109Z,2.30
2019-04-25T13:58:14.365Z,2.00
2019-04-25T14:00:40.818Z,1.95
2019-04-25T14:03:06.701Z,2.40
2019-04-25T14:05:35.180Z,1.25
2019-04-25T14:08:01.548Z,1.37
2019-04-25T14:10:28.014Z,6.00
2019-04-25T14:12:53.850Z,1.32
2019-04-25T14:15:24.149Z,3.72
2019-04-25T14:18:06.673Z,2.60
2019-04-25T14:20:34.452Z,1.65
2019-04-25T14:23:00.301Z,1.12
2019-04-25T14:25:27.274Z,2.40
2019-04-25T14:27:54.535Z,1.85
2019-04-25T14:30:24.741Z,1.37
2019-04-25T14:32:50.098Z,2.40
2019-04-25T14:35:15.979Z,3.20
2019-04-25T14:37:41.826Z,4.65
2019-04-25T14:40:09.561Z,2.70
2019-04-25T14:42:35.777Z,4.95
2019-04-25T14:45:02.929Z,1.95
2019-04-25T14:47:29.591Z,2.90
2019-04-25T14:49:55.729Z,5.83
2019-04-25T14:52:22.025Z,1.65
2019-04-25T14:54:52.383Z,4.60
2019-04-25T14:57:23.415Z,2.72
2019-04-25T14:59:50.852Z,6.12
2019-04-25T15:02:16.851Z,5.28
2019-04-25T15:04:42.689Z,2.58
2019-04-25T15:07:09.133Z,4.50
2019-04-25T15:09:35.395Z,2.87
2019-04-25T15:12:01.497Z,2.72
2019-04-25T15:14:27.721Z,2.72
2019-04-25T15:16:53.945Z,1.90
2019-04-25T15:19:20.174Z,1.80
2019-04-25T15:21:46.405Z,4.20
2019-04-25T15:24:12.639Z,5.92
2019-04-25T15:26:40.322Z,2.15
2019-04-25T15:29:06.734Z,5.45
2019-04-25T15:31:32.589Z,1.57
2019-04-25T15:33:58.623Z,4.45
2019-04-25T15:36:38.336Z,3.00
2019-04-25T15:39:15.817Z,3.05
2019-04-25T15:41:52.826Z,6.05
2019-04-25T15:44:29.519Z,2.12
2019-04-25T15:46:57.286Z,1.85
2019-04-25T15:49:23.166Z,4.00
2019-04-25T15:51:48.999Z,1.65
2019-04-25T15:54:15.313Z,1.17
2019-04-25T15:56:41.593Z,2.58
2019-04-25T15:59:07.862Z,1.20
2019-04-25T16:01:34.599Z,2.17
2019-04-25T16:04:00.729Z,2.12
2019-04-25T16:06:26.965Z,1.35
2019-04-25T16:08:53.637Z,3.77
2019-04-25T16:11:19.794Z,4.80
2019-04-25T16:13:46.020Z,2.58
2019-04-25T16:16:12.274Z,1.62
2019-04-25T16:18:38.239Z,3.15
2019-04-25T16:21:04.482Z,1.95
2019-04-25T16:23:30.380Z,5.95
2019-04-25T16:25:56.841Z,3.37
2019-04-25T16:28:23.073Z,1.62
2019-04-25T16:30:49.402Z,2.40
2019-04-25T16:33:15.528Z,1.65
2019-04-25T16:35:41.261Z,2.65
2019-04-25T16:38:08.495Z,2.95
2019-04-25T16:40:34.320Z,3.02
2019-04-25T16:43:02.183Z,3.47
2019-04-25T16:45:28.929Z,1.87
2019-04-25T16:47:55.817Z,1.62
2019-04-25T16:50:22.186Z,1.65
2019-04-25T16:52:48.673Z,3.25
2019-04-25T16:55:14.985Z,1.00
2019-04-25T16:57:41.978Z,2.80
2019-04-25T17:00:10.141Z,2.42
2019-04-25T17:02:39.640Z,2.33
2019-04-25T17:05:06.309Z,5.05
2019-04-25T17:07:32.705Z,1.32
2019-04-25T17:09:59.174Z,2.35
2019-04-25T17:12:26.223Z,2.60
2019-04-25T17:15:00.676Z,7.58
2019-04-25T17:17:34.454Z,1.42
2019-04-25T17:20:07.994Z,4.72
2019-04-25T17:22:35.105Z,3.17
2019-04-25T17:25:01.578Z,2.55
2019-04-25T17:27:27.963Z,1.10
2019-04-25T17:29:53.943Z,1.25
2019-04-25T17:32:28.081Z,4.10
2019-04-25T17:35:08.034Z,2.67
2019-04-25T17:37:38.972Z,3.25
2019-04-25T17:40:07.019Z,2.50
2019-04-25T17:42:33.724Z,2.75
2019-04-25T17:45:00.893Z,2.65
2019-04-25T17:47:26.762Z,1.80
2019-04-25T17:49:52.587Z,0.62
2019-04-25T17:52:19.154Z,2.15
2019-04-25T17:54:45.976Z,3.95
2019-04-25T17:57:12.204Z,2.10
2019-04-25T17:59:38.033Z,1.62
2019-04-25T18:02:04.289Z,2.60
2019-04-25T18:04:30.113Z,0.70
2019-04-25T18:06:56.084Z,0.80
2019-04-25T18:09:23.338Z,0.55
2019-04-25T18:11:49.234Z,1.60
2019-04-25T18:14:15.069Z,1.85
2019-04-25T18:16:45.721Z,1.92
2019-04-25T18:19:13.515Z,0.98
2019-04-25T18:21:40.526Z,0.75
2019-04-25T18:24:08.705Z,1.55
2019-04-25T18:26:39.230Z,2.98
2019-04-25T18:29:07.379Z,1.02
2019-04-25T18:31:33.355Z,1.05
2019-04-25T18:34:01.089Z,1.15
2019-04-25T18:36:48.385Z,0.75
2019-04-25T18:39:19.534Z,2.52
2019-04-25T18:41:47.278Z,1.37
2019-04-25T18:44:14.145Z,1.30
2019-04-25T18:46:42.589Z,2.15
2019-04-25T18:49:08.957Z,1.80
2019-04-25T18:51:34.854Z,1.15
2019-04-25T18:54:11.655Z,1.75
2019-04-25T18:56:51.777Z,1.15
2019-04-25T18:59:22.939Z,1.62
2019-04-25T19:01:53.798Z,2.17
2019-04-25T19:04:27.376Z,1.00
2019-04-25T19:06:58.084Z,1.37
2019-04-25T19:09:21.367Z,2.40
2019-04-25T19:11:47.242Z,2.30
2019-04-25T19:14:13.118Z,1.25
2019-04-25T19:16:39.807Z,1.27
2019-04-25T19:19:06.618Z,1.52
2019-04-25T19:21:33.342Z,1.42
2019-04-25T19:23:59.536Z,1.00
2019-04-25T19:26:25.692Z,1.50
2019-04-25T19:28:51.826Z,1.07
2019-04-25T19:31:18.150Z,1.45
2019-04-25T19:33:45.416Z,1.02
2019-04-25T19:36:12.020Z,1.30
2019-04-25T19:38:37.927Z,3.72
2019-04-25T19:41:06.128Z,2.85
2019-04-25T19:43:34.405Z,1.47
2019-04-25T19:46:00.633Z,1.92
2019-04-25T19:48:28.081Z,1.50
2019-04-25T19:50:53.985Z,2.17
2019-04-25T19:53:19.894Z,1.20
2019-04-25T19:55:46.366Z,1.72
2019-04-25T19:58:12.485Z,2.05
2019-04-25T20:00:38.357Z,2.60
2019-04-25T20:03:06.577Z,1.57
2019-04-25T20:05:37.358Z,2.75
2019-04-25T20:08:17.178Z,4.92
2019-04-25T20:11:09.026Z,3.85
2019-04-25T20:13:35.325Z,3.27
2019-04-25T20:16:01.102Z,1.80
2019-04-25T20:18:26.941Z,3.98
2019-04-25T20:20:52.788Z,3.05
2019-04-25T20:23:19.016Z,2.58
2019-04-25T20:25:46.275Z,3.00
2019-04-25T20:28:12.310Z,2.22
2019-04-25T20:30:38.183Z,4.58
2019-04-25T20:33:04.766Z,5.42
2019-04-25T20:35:30.998Z,3.67
2019-04-25T20:37:56.866Z,8.78
2019-04-25T20:40:22.909Z,4.35
2019-04-25T20:42:49.685Z,2.72
2019-04-25T20:45:16.259Z,2.45
2019-04-25T20:47:42.733Z,2.50
2019-04-25T20:50:08.615Z,3.35
2019-04-25T20:52:34.786Z,2.85
2019-04-25T20:55:00.613Z,2.80
2019-04-25T20:57:27.022Z,3.20
2019-04-25T20:59:53.921Z,3.35
2019-04-25T21:02:20.317Z,3.37
2019-04-25T21:04:46.481Z,4.53
2019-04-25T21:07:12.711Z,4.33
2019-04-25T21:09:39.229Z,3.55
2019-04-25T21:12:05.240Z,4.55
2019-04-25T21:14:50.884Z,3.02
2019-04-25T21:17:24.985Z,4.10
2019-04-25T21:19:54.080Z,3.30
2019-04-25T21:22:20.730Z,2.77
2019-04-25T21:24:47.063Z,2.55
2019-04-25T21:27:12.945Z,2.45
2019-04-25T21:29:39.203Z,3.10
2019-04-25T21:32:05.414Z,2.50
2019-04-25T21:34:31.865Z,3.02
2019-04-25T21:36:58.360Z,2.60
2019-04-25T21:39:44.568Z,2.65
2019-04-25T21:42:21.861Z,3.52
2019-04-25T21:44:48.506Z,3.98
2019-04-25T21:47:14.737Z,2.45
2019-04-25T21:49:41.010Z,3.92
2019-04-25T21:52:06.960Z,4.08
2019-04-25T21:54:32.980Z,2.80
2019-04-25T21:56:59.748Z,3.05
2019-04-25T21:59:26.222Z,3.22
2019-04-25T22:01:52.219Z,2.25
2019-04-25T22:04:18.624Z,2.33
2019-04-25T22:06:45.359Z,3.55
2019-04-25T22:09:13.155Z,6.58
2019-04-25T22:11:39.799Z,5.30
2019-04-25T22:14:07.169Z,3.90
2019-04-25T22:16:33.467Z,3.20
2019-04-25T22:19:00.137Z,5.08
2019-04-25T22:21:37.390Z,2.77
2019-04-25T22:24:06.182Z,2.77
2019-04-25T22:26:22.411Z,4.20
2019-04-25T22:28:49.045Z,4.20
2019-04-25T22:31:19.618Z,2.62
2019-04-25T22:33:55.495Z,3.37
2019-04-25T22:36:22.609Z,3.60
2019-04-25T22:38:50.921Z,4.72
2019-04-25T22:41:16.795Z,3.80
2019-04-25T22:43:47.857Z,6.17
2019-04-25T22:46:25.456Z,2.87
2019-04-25T22:48:48.077Z,3.77
2019-04-25T22:51:14.855Z,3.65
2019-04-25T22:53:40.782Z,3.25
2019-04-25T22:56:07.364Z,6.28
2019-04-25T22:58:33.982Z,5.85
2019-04-25T23:01:00.722Z,7.12
2019-04-25T23:03:32.449Z,8.20
2019-04-25T23:05:58.326Z,7.50
2019-04-25T23:08:24.975Z,7.50
2019-04-25T23:10:50.895Z,8.18
2019-04-25T23:13:17.033Z,7.67
2019-04-25T23:15:43.363Z,7.80
2019-04-25T23:18:09.755Z,9.15
2019-04-25T23:20:35.825Z,7.45
2019-04-25T23:23:02.043Z,7.03
2019-04-25T23:25:30.110Z,6.67
2019-04-25T23:28:03.880Z,4.70
2019-04-25T23:30:33.638Z,4.35
2019-04-25T23:32:59.503Z,7.40
2019-04-25T23:35:31.565Z,5.70
2019-04-25T23:37:53.345Z,6.10
2019-04-25T23:40:19.572Z,5.35
2019-04-25T23:42:45.799Z,5.00
2019-04-25T23:45:12.410Z,4.30
2019-04-25T23:47:38.311Z,7.60
2019-04-25T23:50:07.071Z,4.90
2019-04-25T23:52:33.589Z,7.42
2019-04-25T23:54:59.444Z,7.58
2019-04-25T23:57:25.410Z,6.55
2019-04-25T23:59:51.870Z,7.60
